Terminal Aerodrome Forecast
Issued by NWS

Home | Current Version | Previous Version | Graphics & Text | Print | Product List | Glossary On
Versions: 1 2 3 4 5 6 7 8 9 10 11 12 13 14 15 16
000
FTUS43 KOAX 031736
TAFCDR
TAF
KCDR 031736Z 0318/0418 05014G24KT P6SM FEW150
     FM040200 08010KT P6SM SCT150
     FM040600 12010KT P6SM BKN150
     FM041300 12011KT P6SM VCSH SCT018 BKN030=

USA.gov is the U.S. government's official web portal to all federal, state and local government web resources and services.